Terminal Aerodrome Forecast
Issued by NWS

Home | Current Version | Previous Version | Text Only | Print | Product List | Glossary On
Versions: 1 2 3 4 5 6 7 8 9 10 11 12 13 14 15 16 17 18 19 20 21
000
FTUS44 KLZK 171800 AAA
TAFHRO
TAF AMD
KHRO 171832Z 1719/1818 14005KT P6SM VCSH SCT060 OVC100
      TEMPO 1719/1723 -RAPL BKN060
     FM172300 14005KT P6SM -RA SCT030 OVC060
      TEMPO 1723/1803 -RAPL BKN030
     FM180300 13005KT P6SM -RA SCT015 OVC030
      TEMPO 1805/1809 5SM -RA BR OVC015
     FM180900 13005KT 5SM BR SCT005 OVC015
      TEMPO 1811/1815 3SM -DZ BR OVC005
     FM181500 13006KT 5SM BR OVC005=

USA.gov is the U.S. government's official web portal to all federal, state and local government web resources and services.